Aviation Digital Data Service (ADDS)

Output produced by TAFs form (0216 UTC 30 May 2015)
found at http://aviationweather.gov/adds/tafs/
 
KVEL 292339Z 3000/3024 08005KT P6SM VCTS SCT090CB BKN150 
     FM300300 31006KT P6SM FEW090 SCT150 
     FM300800 VRB02KT P6SM FEW250 
     FM301900 20006KT P6SM SCT200